createdAt,value
2022-09-13T00:02:07.046Z,16.80
2022-09-13T00:06:14.872Z,16.70
2022-09-13T00:10:16.791Z,16.80
2022-09-13T00:14:18.392Z,16.70
2022-09-13T00:18:20.064Z,16.70
2022-09-13T00:22:21.672Z,16.70
2022-09-13T00:26:33.955Z,16.70
2022-09-13T00:30:35.551Z,16.70
2022-09-13T00:34:37.251Z,16.70
2022-09-13T00:38:39.869Z,16.80
2022-09-13T00:42:41.591Z,16.80
2022-09-13T00:46:48.348Z,16.80
2022-09-13T00:50:54.790Z,16.80
2022-09-13T00:55:04.266Z,16.80
2022-09-13T00:59:12.892Z,16.90
2022-09-13T01:03:17.674Z,16.90
2022-09-13T01:07:19.596Z,16.90
2022-09-13T01:11:29.689Z,16.80
2022-09-13T01:15:31.299Z,16.80
2022-09-13T01:19:32.963Z,16.80
2022-09-13T01:24:09.354Z,16.60
2022-09-13T01:28:37.519Z,16.50
2022-09-13T01:32:57.910Z,16.50
2022-09-13T01:37:08.451Z,16.60
2022-09-13T01:41:47.799Z,16.60
2022-09-13T01:45:55.549Z,16.60
2022-09-13T01:50:19.340Z,16.60
2022-09-13T01:54:59.207Z,16.60
2022-09-13T01:59:20.855Z,16.60
2022-09-13T02:03:34.425Z,16.60
2022-09-13T02:07:41.336Z,16.60
2022-09-13T02:11:47.103Z,16.60
2022-09-13T02:15:55.484Z,16.60
2022-09-13T02:20:02.866Z,16.60
2022-09-13T02:24:08.165Z,16.60
2022-09-13T02:28:15.034Z,16.60
2022-09-13T02:32:25.493Z,16.60
2022-09-13T02:36:35.045Z,16.50
2022-09-13T02:40:46.051Z,16.50
2022-09-13T02:45:01.158Z,16.60
2022-09-13T02:49:10.395Z,16.60
2022-09-13T02:53:25.435Z,16.60
2022-09-13T02:57:46.446Z,16.60
2022-09-13T03:02:03.502Z,16.60
2022-09-13T03:06:05.750Z,16.60
2022-09-13T03:10:11.155Z,16.60
2022-09-13T03:14:27.747Z,16.70
2022-09-13T03:18:35.211Z,16.70
2022-09-13T03:22:55.685Z,16.60
2022-09-13T03:26:57.285Z,16.60
2022-09-13T03:31:20.879Z,16.70
2022-09-13T03:35:41.403Z,16.60
2022-09-13T03:40:11.157Z,16.60
2022-09-13T03:44:15.924Z,16.50
2022-09-13T03:48:18.972Z,16.40
2022-09-13T03:52:20.759Z,16.30
2022-09-13T03:56:22.910Z,16.20
2022-09-13T04:00:24.707Z,16.20
2022-09-13T04:04:26.859Z,16.10
2022-09-13T04:08:28.523Z,16.10
2022-09-13T04:12:31.051Z,16.10
2022-09-13T04:16:32.677Z,16.10
2022-09-13T04:20:35.771Z,16.10
2022-09-13T04:24:38.705Z,16.00
2022-09-13T04:28:40.426Z,15.90
2022-09-13T04:32:45.232Z,15.80
2022-09-13T04:36:47.330Z,15.80
2022-09-13T04:40:54.146Z,15.80
2022-09-13T04:44:55.800Z,15.80
2022-09-13T04:48:57.412Z,15.80
2022-09-13T04:52:59.392Z,15.80
2022-09-13T04:57:01.024Z,15.80
2022-09-13T05:01:08.354Z,15.80
2022-09-13T05:05:10.081Z,15.80
2022-09-13T05:09:15.838Z,15.70
2022-09-13T05:13:17.554Z,15.70
2022-09-13T05:17:20.467Z,15.70
2022-09-13T05:21:22.363Z,15.70
2022-09-13T05:25:26.073Z,15.80
2022-09-13T05:29:27.911Z,15.80
2022-09-13T05:33:32.326Z,15.80
2022-09-13T05:37:33.983Z,15.70
2022-09-13T05:41:35.589Z,15.80
2022-09-13T05:45:37.451Z,15.80
2022-09-13T05:50:01.918Z,15.80
2022-09-13T05:54:00.853Z,15.80
2022-09-13T05:58:03.266Z,15.90
2022-09-13T06:02:04.987Z,16.00
2022-09-13T06:06:07.673Z,16.00
2022-09-13T06:10:11.092Z,16.10
2022-09-13T06:14:12.804Z,16.20
2022-09-13T06:18:14.705Z,16.30
2022-09-13T06:22:16.344Z,16.40
2022-09-13T06:26:20.121Z,16.50
2022-09-13T06:30:21.890Z,16.60
2022-09-13T06:34:26.911Z,16.70
2022-09-13T06:38:30.757Z,16.70
2022-09-13T06:42:35.211Z,16.80
2022-09-13T06:46:37.081Z,17.00
2022-09-13T06:50:38.786Z,17.10
2022-09-13T06:54:40.859Z,17.20
2022-09-13T06:58:44.208Z,17.30
2022-09-13T07:02:51.155Z,17.40
2022-09-13T07:06:52.789Z,17.40
2022-09-13T07:10:57.991Z,17.60
2022-09-13T07:14:59.617Z,17.70
2022-09-13T07:19:05.559Z,17.80
2022-09-13T07:23:07.171Z,17.90
2022-09-13T07:27:08.817Z,18.00
2022-09-13T07:31:21.133Z,18.10
2022-09-13T07:35:22.793Z,18.10
2022-09-13T07:39:24.442Z,18.20
2022-09-13T07:43:26.928Z,18.30
2022-09-13T07:47:28.505Z,18.40
2022-09-13T07:51:32.547Z,18.50
2022-09-13T07:55:34.159Z,18.70
2022-09-13T07:59:35.768Z,18.80
2022-09-13T08:03:37.673Z,18.90
2022-09-13T08:07:39.392Z,19.20
2022-09-13T08:11:42.608Z,19.30
2022-09-13T08:15:44.739Z,19.40
2022-09-13T08:19:46.502Z,19.50
2022-09-13T08:23:48.784Z,19.50
2022-09-13T08:27:50.435Z,19.60
2022-09-13T08:31:52.147Z,19.80
2022-09-13T08:35:55.413Z,20.00
2022-09-13T08:39:57.159Z,20.10
2022-09-13T08:44:08.852Z,20.20
2022-09-13T08:48:16.110Z,20.30
2022-09-13T08:52:50.635Z,20.40
2022-09-13T08:56:58.267Z,20.50
2022-09-13T09:01:12.372Z,20.50
2022-09-13T09:05:20.334Z,20.70
2022-09-13T09:09:22.249Z,20.90
2022-09-13T09:13:32.286Z,21.10
2022-09-13T09:18:02.692Z,21.40
2022-09-13T09:22:07.124Z,21.60
2022-09-13T09:26:23.892Z,21.90
2022-09-13T09:30:41.099Z,22.00
2022-09-13T09:34:52.283Z,22.30
2022-09-13T09:38:54.564Z,22.60
2022-09-13T09:42:56.298Z,23.00
2022-09-13T09:47:07.096Z,23.40
2022-09-13T09:51:11.375Z,23.80
2022-09-13T09:55:34.339Z,24.70
2022-09-13T09:59:37.030Z,25.40
2022-09-13T10:03:40.143Z,25.40
2022-09-13T10:07:41.955Z,25.50
2022-09-13T10:11:54.315Z,25.40
2022-09-13T10:16:02.752Z,25.10
2022-09-13T10:20:13.417Z,24.90
2022-09-13T10:24:17.366Z,25.10
2022-09-13T10:28:19.764Z,25.60
2022-09-13T10:32:22.239Z,26.00
2022-09-13T10:36:51.197Z,26.20
2022-09-13T10:40:51.099Z,26.20
2022-09-13T10:45:02.068Z,26.30
2022-09-13T10:49:03.791Z,26.10
2022-09-13T10:53:36.443Z,25.70
2022-09-13T10:57:38.149Z,25.60
2022-09-13T11:01:52.488Z,25.40
2022-09-13T11:06:15.391Z,25.20
2022-09-13T11:10:39.732Z,25.30
2022-09-13T11:15:13.503Z,25.20
2022-09-13T11:19:21.424Z,25.10
2022-09-13T11:23:44.842Z,25.10
2022-09-13T11:27:55.726Z,24.80
2022-09-13T11:32:14.237Z,24.70
2022-09-13T11:36:21.697Z,24.50
2022-09-13T11:40:54.973Z,24.30
2022-09-13T11:45:21.664Z,24.50
2022-09-13T11:49:48.800Z,24.60
2022-09-13T11:54:02.950Z,24.80
2022-09-13T11:58:10.585Z,25.00
2022-09-13T12:02:34.344Z,25.00
2022-09-13T12:06:47.484Z,24.80
2022-09-13T12:10:59.270Z,24.90
2022-09-13T12:15:05.589Z,24.80
2022-09-13T12:19:34.916Z,25.00
2022-09-13T12:23:43.297Z,25.20
2022-09-13T12:28:06.799Z,25.20
2022-09-13T12:32:10.504Z,25.60
2022-09-13T12:36:32.303Z,25.70
2022-09-13T12:40:52.140Z,25.80
2022-09-13T12:45:28.415Z,25.70
2022-09-13T12:49:39.020Z,26.00
2022-09-13T12:54:03.572Z,26.10
2022-09-13T12:58:05.214Z,25.90
2022-09-13T13:02:24.263Z,26.00
2022-09-13T13:06:37.697Z,25.90
2022-09-13T13:10:39.569Z,26.10
2022-09-13T13:14:41.133Z,26.20
2022-09-13T13:18:48.397Z,26.20
2022-09-13T13:22:51.800Z,26.40
2022-09-13T13:26:54.400Z,26.50
2022-09-13T13:30:57.359Z,26.60
2022-09-13T13:35:28.190Z,26.40
2022-09-13T13:39:29.817Z,26.40
2022-09-13T13:43:33.621Z,26.40
2022-09-13T13:47:35.273Z,26.30
2022-09-13T13:51:36.912Z,26.20
2022-09-13T13:56:25.011Z,26.20
2022-09-13T14:00:33.577Z,25.90
2022-09-13T14:04:48.388Z,25.90
2022-09-13T14:09:06.106Z,25.30
2022-09-13T14:13:22.656Z,25.10
2022-09-13T14:17:45.060Z,24.80
2022-09-13T14:22:04.372Z,24.80
2022-09-13T14:26:06.888Z,24.90
2022-09-13T14:30:28.305Z,24.90
2022-09-13T14:34:32.704Z,24.70
2022-09-13T14:38:36.243Z,24.60
2022-09-13T14:42:44.778Z,24.60
2022-09-13T14:46:51.955Z,24.40
2022-09-13T14:50:59.581Z,24.40
2022-09-13T14:55:05.858Z,24.30
2022-09-13T14:59:16.776Z,24.20
2022-09-13T15:03:19.281Z,24.20
2022-09-13T15:07:28.591Z,24.30
2022-09-13T15:11:33.994Z,24.30
2022-09-13T15:15:40.678Z,24.20
2022-09-13T15:19:48.870Z,24.20
2022-09-13T15:23:51.148Z,24.10
2022-09-13T15:27:54.692Z,23.90
2022-09-13T15:31:59.552Z,24.00
2022-09-13T15:36:28.668Z,23.80
2022-09-13T15:40:40.614Z,23.70
2022-09-13T15:44:42.768Z,23.50
2022-09-13T15:48:51.781Z,23.40
2022-09-13T15:52:55.162Z,23.50
2022-09-13T15:56:58.090Z,23.30
2022-09-13T16:01:00.378Z,23.30
2022-09-13T16:05:02.052Z,23.10
2022-09-13T16:09:24.439Z,23.00
2022-09-13T16:13:26.062Z,23.00
2022-09-13T16:17:28.208Z,23.00
2022-09-13T16:21:29.917Z,23.00
2022-09-13T16:25:31.615Z,23.00
2022-09-13T16:29:33.617Z,22.90
2022-09-13T16:33:35.315Z,22.80
2022-09-13T16:37:37.479Z,22.80
2022-09-13T16:41:40.251Z,22.80
2022-09-13T16:45:42.830Z,22.60
2022-09-13T16:49:44.711Z,22.60
2022-09-13T16:53:46.306Z,22.50
2022-09-13T16:57:50.125Z,22.50
2022-09-13T17:01:52.629Z,22.40
2022-09-13T17:05:59.369Z,22.30
2022-09-13T17:10:01.008Z,22.20
2022-09-13T17:14:05.372Z,22.10
2022-09-13T17:18:07.474Z,22.00
2022-09-13T17:22:11.121Z,21.80
2022-09-13T17:26:12.891Z,21.70
2022-09-13T17:30:14.536Z,21.70
2022-09-13T17:34:16.256Z,21.50
2022-09-13T17:38:17.872Z,21.50
2022-09-13T17:42:23.159Z,21.30
2022-09-13T17:46:28.864Z,21.20
2022-09-13T17:50:30.589Z,21.10
2022-09-13T17:54:32.345Z,21.00
2022-09-13T17:58:34.999Z,20.90
2022-09-13T18:02:36.688Z,20.80
2022-09-13T18:06:42.787Z,20.70
2022-09-13T18:11:04.103Z,20.60
2022-09-13T18:15:06.752Z,20.50
2022-09-13T18:19:09.077Z,20.50
2022-09-13T18:23:11.445Z,20.40
2022-09-13T18:27:13.086Z,20.30
2022-09-13T18:31:17.264Z,20.30
2022-09-13T18:35:18.942Z,20.20
2022-09-13T18:39:22.481Z,20.10
2022-09-13T18:43:24.194Z,20.10
2022-09-13T18:47:25.846Z,20.00
2022-09-13T18:51:45.771Z,20.00
2022-09-13T18:55:47.440Z,20.00
2022-09-13T18:59:49.084Z,19.90
2022-09-13T19:03:53.417Z,19.80
2022-09-13T19:07:56.122Z,19.80
2022-09-13T19:11:58.003Z,19.80
2022-09-13T19:16:00.699Z,19.70
2022-09-13T19:20:03.527Z,19.70
2022-09-13T19:24:10.806Z,19.60
2022-09-13T19:28:14.219Z,19.50
2022-09-13T19:32:16.030Z,19.40
2022-09-13T19:36:23.471Z,19.40
2022-09-13T19:40:25.214Z,19.30
2022-09-13T19:44:27.311Z,19.30
2022-09-13T19:48:39.502Z,19.30
2022-09-13T19:52:41.235Z,19.30
2022-09-13T19:56:43.818Z,19.20
2022-09-13T20:00:45.431Z,19.20
2022-09-13T20:04:48.201Z,19.20
2022-09-13T20:08:50.156Z,19.20
2022-09-13T20:12:54.267Z,19.10
2022-09-13T20:16:56.153Z,19.10
2022-09-13T20:21:06.304Z,19.10
2022-09-13T20:25:08.576Z,19.00
2022-09-13T20:29:10.559Z,19.10
2022-09-13T20:33:12.669Z,19.00
2022-09-13T20:37:14.348Z,19.00
2022-09-13T20:41:16.993Z,18.90
2022-09-13T20:45:18.624Z,18.90
2022-09-13T20:49:20.251Z,19.00
2022-09-13T20:53:21.864Z,18.90
2022-09-13T20:57:24.224Z,18.90
2022-09-13T21:01:28.130Z,18.90
2022-09-13T21:05:29.782Z,18.80
2022-09-13T21:09:32.385Z,18.70
2022-09-13T21:13:36.377Z,18.70
2022-09-13T21:17:38.052Z,18.60
2022-09-13T21:21:41.612Z,18.50
2022-09-13T21:25:43.254Z,18.40
2022-09-13T21:29:44.841Z,18.30
2022-09-13T21:33:47.238Z,18.30
2022-09-13T21:37:48.897Z,18.10
2022-09-13T21:41:50.772Z,18.10
2022-09-13T21:46:16.709Z,18.00
2022-09-13T21:50:18.768Z,17.90
2022-09-13T21:54:20.788Z,17.80
2022-09-13T21:58:22.390Z,17.70
2022-09-13T22:02:24.058Z,17.50
2022-09-13T22:06:31.395Z,17.40
2022-09-13T22:10:35.942Z,17.30
2022-09-13T22:14:37.559Z,17.20
2022-09-13T22:18:40.082Z,17.10
2022-09-13T22:22:41.715Z,17.10
2022-09-13T22:26:43.871Z,17.00
2022-09-13T22:30:45.617Z,17.00
2022-09-13T22:34:47.303Z,16.90
2022-09-13T22:38:54.657Z,16.90
2022-09-13T22:42:56.625Z,16.90
2022-09-13T22:47:00.245Z,16.90
2022-09-13T22:51:02.084Z,16.90
2022-09-13T22:55:03.900Z,16.90
2022-09-13T22:59:17.847Z,16.80
2022-09-13T23:03:19.561Z,16.80
2022-09-13T23:07:21.244Z,16.80
2022-09-13T23:11:37.684Z,16.70
2022-09-13T23:15:39.415Z,16.70
2022-09-13T23:19:41.076Z,16.60
2022-09-13T23:23:43.115Z,16.60
2022-09-13T23:27:45.069Z,16.60
2022-09-13T23:31:47.616Z,16.60
2022-09-13T23:35:50.608Z,16.50
2022-09-13T23:39:52.408Z,16.50
2022-09-13T23:43:54.200Z,16.50
2022-09-13T23:47:55.875Z,16.50
2022-09-13T23:51:57.648Z,16.40
2022-09-13T23:55:59.504Z,16.50
